createdAt,value
2019-03-25T00:03:35.591Z,3.57
2019-03-25T00:08:38.143Z,3.60
2019-03-25T00:13:40.865Z,3.46
2019-03-25T00:18:44.436Z,3.52
2019-03-25T00:23:47.215Z,3.57
2019-03-25T00:28:49.703Z,3.51
2019-03-25T00:33:52.107Z,3.53
2019-03-25T00:38:54.459Z,3.56
2019-03-25T00:43:57.255Z,3.51
2019-03-25T00:49:00.644Z,3.68
2019-03-25T00:54:03.128Z,3.71
2019-03-25T00:59:05.510Z,3.61
2019-03-25T01:04:08.037Z,3.76
2019-03-25T01:09:10.511Z,3.82
2019-03-25T01:14:13.628Z,3.72
2019-03-25T01:19:16.093Z,3.76
2019-03-25T01:24:18.495Z,3.71
2019-03-25T01:29:21.359Z,3.66
2019-03-25T01:34:24.748Z,3.61
2019-03-25T01:39:27.114Z,3.55
2019-03-25T01:44:29.571Z,3.44
2019-03-25T01:49:31.980Z,3.31
2019-03-25T01:54:34.337Z,3.37
2019-03-25T01:59:37.006Z,3.16
2019-03-25T02:04:39.352Z,3.08
2019-03-25T02:09:41.815Z,3.15
2019-03-25T02:14:44.326Z,3.18
2019-03-25T02:20:26.576Z,2.92
2019-03-25T02:25:27.553Z,2.81
2019-03-25T02:30:30.028Z,2.61
2019-03-25T02:35:32.562Z,2.49
2019-03-25T02:40:34.917Z,2.49
2019-03-25T02:45:37.369Z,2.59
2019-03-25T02:50:39.773Z,2.55
2019-03-25T02:55:42.659Z,2.62
2019-03-25T03:00:45.261Z,2.63
2019-03-25T03:05:47.646Z,2.66
2019-03-25T03:10:50.017Z,2.67
2019-03-25T03:15:52.438Z,2.60
2019-03-25T03:20:54.856Z,2.48
2019-03-25T03:25:58.342Z,2.58
2019-03-25T03:31:01.042Z,2.65
2019-03-25T03:36:04.752Z,2.86
2019-03-25T03:41:07.212Z,2.97
2019-03-25T03:46:09.706Z,2.98
2019-03-25T03:51:13.293Z,2.98
2019-03-25T03:56:16.390Z,3.14
2019-03-25T04:01:18.784Z,3.14
2019-03-25T04:06:21.208Z,3.15
2019-03-25T04:11:23.791Z,3.29
2019-03-25T04:16:26.225Z,3.33
2019-03-25T04:21:28.708Z,3.41
2019-03-25T04:26:31.276Z,3.46
2019-03-25T04:31:33.641Z,3.36
2019-03-25T04:36:37.018Z,3.32
2019-03-25T04:41:39.400Z,3.25
2019-03-25T04:46:41.846Z,3.30
2019-03-25T04:51:45.586Z,3.30
2019-03-25T04:56:47.956Z,3.46
2019-03-25T05:01:50.525Z,3.41
2019-03-25T05:06:52.915Z,3.41
2019-03-25T05:11:55.485Z,3.63
2019-03-25T05:16:58.136Z,3.63
2019-03-25T05:22:00.507Z,3.81
2019-03-25T05:27:02.890Z,3.81
2019-03-25T05:32:05.283Z,3.83
2019-03-25T05:37:07.792Z,3.95
2019-03-25T05:42:10.303Z,3.87
2019-03-25T05:47:12.949Z,3.55
2019-03-25T05:52:15.320Z,3.48
2019-03-25T05:57:17.949Z,3.59
2019-03-25T06:02:20.443Z,3.71
2019-03-25T06:07:22.817Z,3.68
2019-03-25T06:12:25.203Z,3.65
2019-03-25T06:17:27.829Z,3.63
2019-03-25T06:22:30.393Z,3.68
2019-03-25T06:27:32.973Z,3.79
2019-03-25T06:32:35.439Z,3.85
2019-03-25T06:37:37.826Z,3.98
2019-03-25T06:42:40.201Z,3.98
2019-03-25T06:47:42.659Z,3.94
2019-03-25T06:52:45.137Z,3.92
2019-03-25T06:57:47.617Z,3.95
2019-03-25T07:02:50.164Z,3.91
2019-03-25T07:07:52.742Z,3.90
2019-03-25T07:12:55.354Z,3.84
2019-03-25T07:17:57.868Z,3.67
2019-03-25T07:23:00.236Z,3.67
2019-03-25T07:28:02.749Z,3.69
2019-03-25T07:33:05.226Z,3.80
2019-03-25T07:38:07.597Z,3.90
2019-03-25T07:43:09.998Z,4.13
2019-03-25T07:48:12.465Z,4.35
2019-03-25T07:53:14.829Z,4.46
2019-03-25T07:58:17.249Z,4.70
2019-03-25T08:03:19.627Z,4.94
2019-03-25T08:08:22.172Z,5.46
2019-03-25T08:13:24.778Z,5.84
2019-03-25T08:18:27.221Z,6.20
2019-03-25T08:23:29.589Z,6.00
2019-03-25T08:28:32.133Z,5.75
2019-03-25T08:33:34.537Z,5.92
2019-03-25T08:38:36.965Z,5.98
2019-03-25T08:43:39.475Z,6.62
2019-03-25T08:48:42.028Z,6.66
2019-03-25T08:53:44.382Z,6.26
2019-03-25T08:58:46.800Z,6.12
2019-03-25T09:03:49.184Z,6.06
2019-03-25T09:08:52.767Z,6.81
2019-03-25T09:13:55.149Z,6.97
2019-03-25T09:18:57.773Z,6.67
2019-03-25T09:24:00.314Z,6.77
2019-03-25T09:29:03.982Z,6.29
2019-03-25T09:34:06.545Z,6.79
2019-03-25T09:39:09.127Z,7.55
2019-03-25T09:44:11.511Z,7.16
2019-03-25T09:49:14.062Z,7.56
2019-03-25T09:54:16.439Z,7.57
2019-03-25T09:59:18.844Z,7.69
2019-03-25T10:04:21.257Z,8.06
2019-03-25T10:09:23.678Z,8.40
2019-03-25T10:14:26.053Z,8.31
2019-03-25T10:19:28.463Z,8.41
2019-03-25T10:24:30.868Z,8.86
2019-03-25T10:29:33.236Z,8.60
2019-03-25T10:34:35.608Z,8.54
2019-03-25T10:39:37.993Z,9.16
2019-03-25T10:44:40.372Z,8.92
2019-03-25T10:49:42.786Z,8.99
2019-03-25T10:54:45.293Z,8.73
2019-03-25T10:59:47.780Z,8.51
2019-03-25T11:04:50.254Z,8.56
2019-03-25T11:09:53.761Z,8.15
2019-03-25T11:14:56.176Z,8.13
2019-03-25T11:19:58.555Z,7.80
2019-03-25T11:25:00.942Z,7.77
2019-03-25T11:30:05.813Z,7.62
2019-03-25T11:35:09.226Z,6.94
2019-03-25T11:40:13.249Z,7.15
2019-03-25T11:45:16.081Z,7.67
2019-03-25T11:50:18.585Z,7.52
2019-03-25T11:55:23.063Z,7.57
2019-03-25T12:00:26.004Z,7.43
2019-03-25T12:05:28.381Z,6.37
2019-03-25T12:10:30.984Z,5.70
2019-03-25T12:15:33.619Z,5.39
2019-03-25T12:20:36.229Z,4.88
2019-03-25T12:25:38.593Z,4.05
2019-03-25T12:30:41.286Z,3.89
2019-03-25T12:35:43.674Z,3.88
2019-03-25T12:40:46.339Z,4.27
2019-03-25T12:45:48.770Z,4.62
2019-03-25T12:50:51.165Z,4.64
2019-03-25T12:55:53.624Z,4.73
2019-03-25T13:00:56.125Z,4.85
2019-03-25T13:05:58.523Z,4.70
2019-03-25T13:11:00.977Z,4.58
2019-03-25T13:16:03.547Z,4.64
2019-03-25T13:21:05.937Z,5.43
2019-03-25T13:26:08.293Z,5.98
2019-03-25T13:31:10.793Z,6.69
2019-03-25T13:36:13.342Z,7.04
2019-03-25T13:41:15.954Z,7.02
2019-03-25T13:46:18.373Z,6.20
2019-03-25T13:51:20.754Z,5.52
2019-03-25T13:56:23.124Z,5.58
2019-03-25T14:01:25.665Z,5.55
2019-03-25T14:06:28.053Z,5.32
2019-03-25T14:11:30.420Z,5.11
2019-03-25T14:16:32.835Z,5.10
2019-03-25T14:21:35.220Z,5.71
2019-03-25T14:26:37.696Z,6.93
2019-03-25T14:31:40.535Z,7.71
2019-03-25T14:36:44.056Z,6.83
2019-03-25T14:41:46.528Z,6.29
2019-03-25T14:46:48.957Z,6.57
2019-03-25T14:51:51.415Z,5.52
2019-03-25T14:56:53.793Z,5.65
2019-03-25T15:01:56.486Z,5.57
2019-03-25T15:06:59.043Z,5.77
2019-03-25T15:12:01.433Z,5.93
2019-03-25T15:17:03.843Z,5.55
2019-03-25T15:22:06.229Z,3.65
2019-03-25T15:27:08.618Z,3.44
2019-03-25T15:32:12.269Z,3.70
2019-03-25T15:37:14.972Z,3.86
2019-03-25T15:42:17.523Z,4.09
2019-03-25T15:47:20.322Z,4.53
2019-03-25T15:52:22.877Z,7.64
2019-03-25T15:57:25.257Z,8.95
2019-03-25T16:02:27.643Z,10.29
2019-03-25T16:07:33.122Z,9.94
2019-03-25T16:12:38.317Z,9.07
2019-03-25T16:17:43.102Z,11.26
2019-03-25T16:22:46.492Z,10.85
2019-03-25T16:27:49.077Z,11.13
2019-03-25T16:32:51.779Z,10.37
2019-03-25T16:37:54.160Z,10.49
2019-03-25T16:42:56.519Z,10.10
2019-03-25T16:47:59.092Z,9.07
2019-03-25T16:53:01.689Z,10.42
2019-03-25T16:58:07.070Z,10.17
2019-03-25T17:03:09.560Z,7.50
2019-03-25T17:08:11.927Z,7.41
2019-03-25T17:13:14.528Z,6.28
2019-03-25T17:18:16.940Z,5.92
2019-03-25T17:23:19.295Z,5.69
2019-03-25T17:28:21.847Z,5.87
2019-03-25T17:33:24.254Z,5.41
2019-03-25T17:38:26.650Z,5.10
2019-03-25T17:43:47.297Z,4.91
2019-03-25T17:49:08.846Z,5.08
2019-03-25T17:54:29.987Z,5.21
2019-03-25T17:59:51.089Z,5.22
2019-03-25T18:05:12.692Z,5.24
2019-03-25T18:10:33.948Z,5.17
2019-03-25T18:15:54.604Z,4.89
2019-03-25T18:21:15.845Z,4.79
2019-03-25T18:26:36.908Z,4.80
2019-03-25T18:31:57.857Z,4.54
2019-03-25T18:37:19.189Z,4.31
2019-03-25T18:42:40.459Z,4.09
2019-03-25T18:48:01.860Z,4.08
2019-03-25T18:53:23.058Z,4.06
2019-03-25T18:58:44.216Z,4.06
2019-03-25T19:04:05.208Z,4.15
2019-03-25T19:09:26.101Z,4.19
2019-03-25T19:14:47.098Z,4.33
2019-03-25T19:20:08.296Z,4.57
2019-03-25T19:25:29.619Z,4.49
2019-03-25T19:30:50.709Z,4.35
2019-03-25T19:36:11.626Z,4.31
2019-03-25T19:41:32.942Z,4.39
2019-03-25T19:46:54.046Z,4.34
2019-03-25T19:52:15.377Z,3.95
2019-03-25T19:57:36.359Z,4.11
2019-03-25T20:02:57.446Z,4.06
2019-03-25T20:08:18.594Z,4.02
2019-03-25T20:13:39.861Z,3.90
2019-03-25T20:19:01.201Z,3.91
2019-03-25T20:24:21.938Z,3.92
2019-03-25T20:29:43.296Z,4.08
2019-03-25T20:35:04.956Z,4.20
2019-03-25T20:40:26.100Z,4.25
2019-03-25T20:52:16.811Z,4.28
2019-03-25T20:57:40.515Z,4.28
2019-03-25T21:03:01.144Z,4.33
2019-03-25T21:08:22.417Z,4.45
2019-03-25T21:13:43.935Z,4.55
2019-03-25T21:19:05.057Z,4.60
2019-03-25T21:24:26.206Z,4.62
2019-03-25T21:29:47.398Z,4.62
2019-03-25T21:35:08.782Z,4.51
2019-03-25T21:40:30.133Z,4.53
2019-03-25T21:45:52.380Z,4.40
2019-03-25T21:51:13.795Z,4.35
2019-03-25T21:56:34.951Z,4.33
2019-03-25T22:01:56.574Z,4.25
2019-03-25T22:07:17.213Z,4.21
2019-03-25T22:12:39.167Z,4.19
2019-03-25T22:18:00.821Z,4.31
2019-03-25T22:23:21.872Z,4.20
2019-03-25T22:28:43.204Z,3.95
2019-03-25T22:34:04.165Z,3.92
2019-03-25T22:39:26.026Z,3.93
2019-03-25T22:44:47.060Z,4.15
2019-03-25T22:50:17.092Z,4.28
2019-03-25T22:55:38.148Z,4.38
2019-03-25T23:01:00.917Z,4.50
2019-03-25T23:06:22.014Z,4.53
2019-03-25T23:11:43.291Z,4.51
2019-03-25T23:17:03.872Z,4.45
2019-03-25T23:22:25.172Z,4.47
2019-03-25T23:27:46.236Z,4.55
2019-03-25T23:33:06.977Z,4.63
2019-03-25T23:38:28.712Z,4.64
2019-03-25T23:43:49.685Z,4.61
2019-03-25T23:49:10.906Z,4.58
2019-03-25T23:54:31.804Z,4.54
2019-03-25T23:59:53.261Z,4.40
